createdAt,value
2019-03-12T00:03:34.694Z,58.74
2019-03-12T00:05:45.495Z,59.06
2019-03-12T00:07:56.428Z,58.99
2019-03-12T00:10:48.882Z,59.54
2019-03-12T00:12:59.714Z,59.32
2019-03-12T00:15:10.625Z,59.60
2019-03-12T00:17:21.438Z,59.50
2019-03-12T00:19:32.243Z,59.78
2019-03-12T00:21:43.069Z,59.75
2019-03-12T00:23:53.903Z,59.76
2019-03-12T00:26:04.688Z,59.80
2019-03-12T00:28:15.501Z,60.22
2019-03-12T00:30:26.336Z,59.82
2019-03-12T00:32:37.174Z,59.56
2019-03-12T00:34:47.952Z,59.80
2019-03-12T00:36:58.881Z,59.81
2019-03-12T00:39:09.685Z,60.14
2019-03-12T00:41:20.467Z,59.98
2019-03-12T00:43:31.277Z,59.87
2019-03-12T00:45:42.101Z,59.76
2019-03-12T00:47:52.894Z,59.85
2019-03-12T00:50:45.341Z,60.14
2019-03-12T00:52:56.227Z,60.23
2019-03-12T00:55:48.659Z,60.70
2019-03-12T00:57:59.472Z,60.40
2019-03-12T01:00:51.932Z,60.70
2019-03-12T01:03:44.400Z,60.62
2019-03-12T01:05:55.191Z,60.97
2019-03-12T01:08:05.986Z,61.27
2019-03-12T01:10:16.949Z,61.62
2019-03-12T01:12:27.748Z,61.69
2019-03-12T01:14:38.544Z,61.76
2019-03-12T01:16:49.356Z,61.99
2019-03-12T01:19:00.171Z,62.29
2019-03-12T01:21:10.965Z,62.32
2019-03-12T01:23:21.820Z,62.43
2019-03-12T01:25:32.636Z,62.62
2019-03-12T01:27:43.433Z,62.79
2019-03-12T01:29:54.252Z,62.81
2019-03-12T01:32:05.073Z,62.90
2019-03-12T01:34:15.868Z,63.06
2019-03-12T01:36:26.715Z,63.40
2019-03-12T01:38:37.498Z,63.14
2019-03-12T01:40:48.291Z,63.30
2019-03-12T01:42:59.121Z,63.23
2019-03-12T01:45:29.810Z,63.19
2019-03-12T01:47:40.693Z,63.22
2019-03-12T01:49:51.515Z,63.19
2019-03-12T01:52:02.418Z,63.24
2019-03-12T01:54:13.198Z,63.26
2019-03-12T01:56:24.047Z,63.19
2019-03-12T01:58:34.839Z,63.19
2019-03-12T02:00:45.748Z,63.26
2019-03-12T02:02:56.548Z,63.22
2019-03-12T02:05:07.344Z,63.60
2019-03-12T02:07:18.162Z,63.89
2019-03-12T02:12:01.557Z,63.46
2019-03-12T02:14:32.294Z,64.19
2019-03-12T02:16:43.134Z,64.12
2019-03-12T02:18:53.921Z,64.28
2019-03-12T02:21:04.754Z,64.39
2019-03-12T02:23:15.556Z,64.32
2019-03-12T02:25:26.506Z,64.36
2019-03-12T02:27:37.324Z,64.49
2019-03-12T02:29:48.122Z,64.43
2019-03-12T02:31:58.967Z,64.27
2019-03-12T02:34:09.773Z,64.10
2019-03-12T02:36:40.438Z,64.12
2019-03-12T02:38:51.253Z,63.84
2019-03-12T02:41:02.136Z,63.50
2019-03-12T02:43:12.962Z,63.46
2019-03-12T02:45:23.766Z,63.54
2019-03-12T02:47:34.567Z,63.67
2019-03-12T02:49:45.399Z,63.70
2019-03-12T02:51:56.198Z,63.65
2019-03-12T02:54:07.028Z,63.57
2019-03-12T02:56:17.923Z,63.45
2019-03-12T02:58:28.792Z,63.59
2019-03-12T03:00:39.732Z,63.58
2019-03-12T03:02:50.605Z,63.63
2019-03-12T03:05:01.413Z,63.76
2019-03-12T03:07:32.079Z,63.85
2019-03-12T03:09:42.920Z,63.60
2019-03-12T03:11:53.722Z,63.72
2019-03-12T03:14:04.529Z,63.54
2019-03-12T03:16:15.321Z,63.52
2019-03-12T03:18:26.148Z,63.57
2019-03-12T03:20:36.985Z,63.57
2019-03-12T03:22:47.758Z,63.60
2019-03-12T03:24:58.569Z,63.54
2019-03-12T03:27:09.373Z,63.39
2019-03-12T03:29:20.181Z,63.26
2019-03-12T03:31:31.022Z,63.72
2019-03-12T03:33:41.811Z,63.74
2019-03-12T03:35:52.590Z,63.96
2019-03-12T03:38:03.396Z,64.03
2019-03-12T03:40:34.084Z,64.05
2019-03-12T03:42:45.007Z,64.04
2019-03-12T03:44:55.804Z,64.18
2019-03-12T03:47:06.611Z,64.37
2019-03-12T03:49:17.442Z,64.55
2019-03-12T03:51:28.222Z,64.49
2019-03-12T03:53:39.010Z,64.49
2019-03-12T03:55:49.845Z,64.44
2019-03-12T03:58:00.638Z,64.52
2019-03-12T04:00:31.340Z,64.63
2019-03-12T04:02:42.142Z,64.83
2019-03-12T04:04:52.971Z,64.90
2019-03-12T04:07:03.759Z,64.99
2019-03-12T04:09:14.558Z,65.10
2019-03-12T04:11:25.397Z,65.45
2019-03-12T04:13:36.206Z,65.89
2019-03-12T04:18:05.857Z,66.63
2019-03-12T04:20:58.310Z,67.27
2019-03-12T04:23:09.116Z,67.66
2019-03-12T04:25:19.919Z,67.60
2019-03-12T04:27:30.751Z,67.46
2019-03-12T04:29:41.582Z,67.51
2019-03-12T04:31:52.363Z,67.51
2019-03-12T04:34:23.027Z,67.63
2019-03-12T04:36:33.901Z,67.47
2019-03-12T04:38:44.731Z,67.53
2019-03-12T04:40:55.535Z,68.15
2019-03-12T04:43:06.353Z,68.11
2019-03-12T04:45:17.248Z,68.32
2019-03-12T04:47:28.072Z,68.38
2019-03-12T04:49:38.865Z,67.96
2019-03-12T04:51:49.676Z,67.94
2019-03-12T04:54:00.464Z,67.66
2019-03-12T04:56:11.269Z,67.64
2019-03-12T04:58:22.075Z,67.48
2019-03-12T05:00:32.858Z,67.31
2019-03-12T05:02:43.681Z,67.41
2019-03-12T05:04:54.586Z,67.25
2019-03-12T05:07:05.410Z,66.90
2019-03-12T05:09:16.196Z,66.92
2019-03-12T05:11:27.072Z,66.93
2019-03-12T05:13:37.901Z,66.98
2019-03-12T05:15:48.689Z,67.03
2019-03-12T05:17:59.516Z,66.83
2019-03-12T05:20:51.980Z,66.53
2019-03-12T05:23:02.811Z,66.56
2019-03-12T05:25:55.231Z,66.87
2019-03-12T05:28:06.039Z,67.02
2019-03-12T05:30:58.477Z,66.96
2019-03-12T05:33:09.315Z,67.07
2019-03-12T05:35:20.112Z,67.16
2019-03-12T05:37:31.004Z,67.07
2019-03-12T05:39:41.811Z,67.12
2019-03-12T05:41:52.700Z,67.47
2019-03-12T05:46:42.695Z,67.52
2019-03-12T05:48:53.493Z,67.46
2019-03-12T05:51:04.297Z,67.73
2019-03-12T05:53:15.322Z,67.86
2019-03-12T05:55:26.117Z,68.14
2019-03-12T05:57:36.906Z,68.32
2019-03-12T05:59:47.723Z,68.29
2019-03-12T06:01:58.527Z,68.22
2019-03-12T06:04:09.351Z,68.10
2019-03-12T06:06:20.158Z,68.16
2019-03-12T06:08:31.051Z,68.16
2019-03-12T06:10:41.909Z,68.55
2019-03-12T06:12:52.698Z,68.68
2019-03-12T06:15:45.170Z,68.99
2019-03-12T06:17:55.958Z,69.05
2019-03-12T06:20:48.424Z,68.89
2019-03-12T06:22:59.286Z,69.08
2019-03-12T06:25:10.233Z,69.21
2019-03-12T06:27:21.032Z,69.32
2019-03-12T06:29:31.824Z,69.06
2019-03-12T06:32:02.511Z,68.65
2019-03-12T06:39:46.274Z,68.60
2019-03-12T06:44:35.533Z,68.52
2019-03-12T06:47:06.189Z,68.53
2019-03-12T06:54:31.174Z,67.81
2019-03-12T06:59:24.202Z,67.42
2019-03-12T07:04:17.365Z,66.14
2019-03-12T07:06:48.066Z,65.71
2019-03-12T07:09:18.726Z,65.36
2019-03-12T07:11:49.443Z,64.57
2019-03-12T07:14:22.503Z,64.40
2019-03-12T07:16:52.806Z,62.92
2019-03-12T07:19:23.494Z,60.83
2019-03-12T07:21:54.201Z,57.90
2019-03-12T07:36:12.704Z,49.36
2019-03-12T07:41:02.228Z,47.36
2019-03-12T07:43:32.939Z,46.76
2019-03-12T07:46:03.613Z,45.73
2019-03-12T07:48:34.304Z,44.83
2019-03-12T07:51:04.981Z,44.36
2019-03-12T07:53:35.652Z,44.16
2019-03-12T07:58:38.679Z,43.54
2019-03-12T08:01:09.344Z,44.00
2019-03-12T08:08:30.758Z,43.31
2019-03-12T08:11:01.479Z,42.02
2019-03-12T08:13:32.163Z,41.59
2019-03-12T08:16:02.906Z,41.73
2019-03-12T08:18:35.572Z,41.02
2019-03-12T08:21:06.162Z,41.40
2019-03-12T08:23:36.927Z,40.18
2019-03-12T08:26:07.617Z,40.89
2019-03-12T08:28:38.286Z,41.48
2019-03-12T08:31:08.979Z,42.36
2019-03-12T08:33:49.984Z,43.56
2019-03-12T08:36:12.236Z,42.65
2019-03-12T08:41:15.274Z,42.15
2019-03-12T08:43:45.945Z,40.55
2019-03-12T08:50:57.978Z,40.58
2019-03-12T08:53:28.641Z,40.30
2019-03-12T08:55:59.326Z,39.54
2019-03-12T09:01:02.386Z,41.25
2019-03-12T09:03:33.052Z,40.15
2019-03-12T09:06:03.767Z,41.04
2019-03-12T09:11:06.805Z,39.82
2019-03-12T09:13:37.479Z,39.26
2019-03-12T09:16:08.168Z,38.24
2019-03-12T09:18:38.955Z,38.34
2019-03-12T09:21:09.652Z,38.35
2019-03-12T09:23:40.435Z,38.31
2019-03-12T09:26:11.131Z,39.36
2019-03-12T09:28:41.823Z,38.05
2019-03-12T09:31:12.499Z,37.63
2019-03-12T09:36:02.017Z,37.21
2019-03-12T09:40:51.715Z,37.51
2019-03-12T09:43:22.524Z,36.98
2019-03-12T09:45:53.307Z,36.27
2019-03-12T09:55:45.623Z,36.47
2019-03-12T09:58:16.327Z,37.17
2019-03-12T10:00:47.106Z,36.90
2019-03-12T10:03:17.797Z,37.05
2019-03-12T10:05:48.469Z,36.30
2019-03-12T10:08:19.161Z,37.26
2019-03-12T10:13:22.235Z,37.42
2019-03-12T10:15:52.914Z,37.40
2019-03-12T10:18:23.616Z,37.57
2019-03-12T10:20:54.286Z,37.40
2019-03-12T10:25:57.303Z,36.70
2019-03-12T10:28:27.999Z,37.31
2019-03-12T10:30:58.687Z,36.88
2019-03-12T10:33:29.419Z,36.88
2019-03-12T10:36:00.167Z,37.83
2019-03-12T10:38:52.673Z,36.34
2019-03-12T10:43:35.929Z,35.65
2019-03-12T10:46:06.621Z,35.85
2019-03-12T10:48:17.428Z,34.76
2019-03-12T10:50:35.532Z,36.61
2019-03-12T10:52:46.344Z,36.53
2019-03-12T10:54:57.180Z,36.10
2019-03-12T10:57:08.000Z,37.00
2019-03-12T10:59:18.802Z,35.95
2019-03-12T11:01:29.632Z,36.30
2019-03-12T11:03:40.459Z,35.04
2019-03-12T11:05:51.271Z,32.47
2019-03-12T11:08:02.062Z,35.34
2019-03-12T11:10:32.756Z,36.64
2019-03-12T11:12:43.583Z,34.97
2019-03-12T11:14:54.387Z,34.83
2019-03-12T11:17:05.296Z,36.12
2019-03-12T11:19:16.091Z,35.01
2019-03-12T11:21:26.919Z,31.91
2019-03-12T11:23:37.747Z,32.05
2019-03-12T11:25:48.576Z,31.41
2019-03-12T11:27:59.417Z,30.58
2019-03-12T11:30:30.107Z,31.93
2019-03-12T11:32:40.896Z,32.33
2019-03-12T11:34:51.693Z,30.73
2019-03-12T11:37:02.881Z,30.73
2019-03-12T11:39:15.352Z,31.53
2019-03-12T11:41:26.254Z,32.43
2019-03-12T11:43:37.036Z,31.89
2019-03-12T11:45:47.829Z,32.09
2019-03-12T11:47:58.648Z,30.85
2019-03-12T11:50:51.105Z,31.66
2019-03-12T11:53:02.152Z,31.04
2019-03-12T11:55:56.270Z,30.37
2019-03-12T11:58:07.119Z,31.42
2019-03-12T12:00:59.611Z,31.85
2019-03-12T12:03:10.583Z,32.17
2019-03-12T12:05:21.485Z,31.60
2019-03-12T12:07:32.417Z,31.77
2019-03-12T12:09:43.206Z,31.53
2019-03-12T12:11:54.030Z,32.10
2019-03-12T12:14:04.853Z,34.24
2019-03-12T12:16:15.755Z,32.11
2019-03-12T12:18:26.686Z,33.00
2019-03-12T12:20:37.478Z,32.77
2019-03-12T12:22:48.294Z,34.02
2019-03-12T12:24:59.121Z,32.34
2019-03-12T12:27:09.926Z,30.49
2019-03-12T12:29:20.769Z,31.12
2019-03-12T12:31:31.667Z,31.85
2019-03-12T12:33:42.497Z,30.51
2019-03-12T12:35:53.342Z,31.26
2019-03-12T12:38:04.377Z,30.34
2019-03-12T12:40:56.862Z,30.08
2019-03-12T12:43:07.665Z,29.69
2019-03-12T12:45:38.764Z,29.93
2019-03-12T12:47:49.556Z,30.22
2019-03-12T12:50:00.527Z,29.43
2019-03-12T12:52:11.323Z,29.34
2019-03-12T12:54:22.314Z,30.15
2019-03-12T12:56:33.116Z,29.90
2019-03-12T12:58:43.958Z,30.68
2019-03-12T13:00:54.799Z,30.03
2019-03-12T13:03:05.679Z,29.04
2019-03-12T13:05:16.504Z,29.59
2019-03-12T13:07:27.313Z,28.70
2019-03-12T13:09:38.145Z,29.15
2019-03-12T13:11:49.065Z,29.23
2019-03-12T13:13:59.868Z,29.10
2019-03-12T13:16:10.698Z,29.33
2019-03-12T13:18:21.605Z,28.00
2019-03-12T13:20:32.442Z,31.13
2019-03-12T13:22:43.336Z,30.52
2019-03-12T13:24:54.136Z,35.85
2019-03-12T13:27:04.949Z,29.98
2019-03-12T13:29:15.817Z,30.18
2019-03-12T13:31:26.637Z,28.51
2019-03-12T13:33:37.546Z,29.22
2019-03-12T13:35:49.577Z,30.63
2019-03-12T13:38:01.041Z,30.79
2019-03-12T13:40:53.594Z,29.49
2019-03-12T13:43:04.525Z,29.80
2019-03-12T13:45:57.063Z,30.22
2019-03-12T13:48:07.930Z,31.01
2019-03-12T13:50:18.774Z,30.52
2019-03-12T13:52:29.624Z,30.54
2019-03-12T13:54:40.626Z,31.18
2019-03-12T13:56:51.513Z,30.70
2019-03-12T13:59:02.536Z,32.02
2019-03-12T14:01:13.469Z,33.05
2019-03-12T14:03:24.259Z,31.73
2019-03-12T14:05:35.080Z,32.00
2019-03-12T14:07:45.975Z,31.46
2019-03-12T14:09:56.786Z,31.95
2019-03-12T14:12:07.727Z,32.07
2019-03-12T14:14:18.736Z,32.27
2019-03-12T14:16:29.534Z,31.33
2019-03-12T14:18:40.473Z,31.77
2019-03-12T14:21:32.959Z,32.47
2019-03-12T14:24:03.663Z,32.33
2019-03-12T14:26:14.459Z,30.44
2019-03-12T14:28:25.494Z,31.68
2019-03-12T14:30:36.411Z,30.26
2019-03-12T14:32:47.212Z,30.97
2019-03-12T14:34:58.232Z,31.25
2019-03-12T14:37:09.157Z,30.83
2019-03-12T14:39:20.054Z,31.21
2019-03-12T14:41:31.087Z,31.99
2019-03-12T14:43:41.904Z,30.91
2019-03-12T14:45:52.911Z,31.39
2019-03-12T14:48:03.815Z,32.15
2019-03-12T14:50:56.301Z,32.23
2019-03-12T14:53:48.759Z,31.88
2019-03-12T14:55:59.594Z,32.74
2019-03-12T14:58:10.674Z,31.85
2019-03-12T15:01:03.120Z,31.74
2019-03-12T15:03:14.050Z,31.44
2019-03-12T15:05:24.953Z,31.94
2019-03-12T15:07:35.795Z,32.53
2019-03-12T15:09:46.598Z,31.75
2019-03-12T15:11:57.410Z,32.35
2019-03-12T15:14:08.255Z,31.36
2019-03-12T15:16:19.048Z,32.35
2019-03-12T15:18:29.889Z,32.42
2019-03-12T15:20:40.792Z,32.66
2019-03-12T15:22:51.560Z,33.11
2019-03-12T15:25:44.006Z,33.21
2019-03-12T15:27:54.801Z,29.86
2019-03-12T15:30:26.080Z,30.38
2019-03-12T15:32:36.885Z,30.86
2019-03-12T15:34:47.707Z,29.53
2019-03-12T15:36:58.518Z,30.80
2019-03-12T15:39:09.653Z,31.19
2019-03-12T15:41:20.495Z,30.63
2019-03-12T15:43:31.297Z,30.54
2019-03-12T15:45:42.215Z,31.04
2019-03-12T15:47:53.018Z,31.16
2019-03-12T15:50:45.466Z,31.69
2019-03-12T15:52:56.302Z,31.06
2019-03-12T15:55:07.505Z,31.33
2019-03-12T15:57:18.350Z,30.69
2019-03-12T15:59:29.231Z,30.96
2019-03-12T16:01:40.040Z,31.57
2019-03-12T16:03:50.946Z,30.58
2019-03-12T16:06:01.836Z,31.44
2019-03-12T16:08:12.741Z,31.00
2019-03-12T16:10:23.614Z,31.79
2019-03-12T16:12:34.470Z,32.39
2019-03-12T16:14:45.276Z,31.93
2019-03-12T16:16:56.105Z,32.43
2019-03-12T16:19:06.912Z,31.47
2019-03-12T16:21:17.767Z,32.02
2019-03-12T16:23:28.567Z,31.62
2019-03-12T16:25:39.370Z,31.88
2019-03-12T16:27:50.195Z,32.51
2019-03-12T16:30:01.117Z,32.34
2019-03-12T16:32:11.928Z,31.99
2019-03-12T16:34:22.784Z,32.17
2019-03-12T16:36:33.694Z,33.23
2019-03-12T16:38:44.519Z,32.73
2019-03-12T16:40:55.322Z,32.97
2019-03-12T16:43:06.280Z,32.91
2019-03-12T16:45:58.740Z,33.05
2019-03-12T16:48:09.658Z,33.25
2019-03-12T16:50:20.503Z,34.95
2019-03-12T16:52:31.417Z,33.73
2019-03-12T16:54:42.227Z,34.69
2019-03-12T16:56:53.048Z,34.34
2019-03-12T16:59:03.875Z,34.25
2019-03-12T17:01:14.709Z,34.45
2019-03-12T17:03:25.603Z,34.62
2019-03-12T17:05:36.427Z,35.26
2019-03-12T17:07:47.265Z,34.55
2019-03-12T17:09:58.086Z,34.72
2019-03-12T17:12:08.944Z,35.04
2019-03-12T17:14:19.864Z,35.33
2019-03-12T17:16:30.672Z,35.98
2019-03-12T17:18:41.594Z,34.90
2019-03-12T17:20:52.409Z,35.23
2019-03-12T17:23:03.334Z,35.25
2019-03-12T17:25:14.164Z,49.93
2019-03-12T17:27:24.995Z,41.22
2019-03-12T17:29:35.833Z,39.73
2019-03-12T17:31:46.632Z,34.90
2019-03-12T17:33:57.451Z,33.72
2019-03-12T17:36:08.413Z,32.47
2019-03-12T17:38:19.334Z,33.60
2019-03-12T17:40:30.154Z,34.11
2019-03-12T17:42:40.959Z,35.20
2019-03-12T17:45:11.692Z,34.77
2019-03-12T17:47:22.513Z,35.16
2019-03-12T17:49:33.364Z,35.84
2019-03-12T17:51:44.212Z,35.87
2019-03-12T17:53:54.993Z,36.21
2019-03-12T17:56:05.949Z,36.17
2019-03-12T17:58:16.787Z,36.87
2019-03-12T18:00:47.483Z,36.91
2019-03-12T18:02:58.290Z,37.18
2019-03-12T18:05:50.791Z,36.98
2019-03-12T18:08:01.612Z,36.62
2019-03-12T18:10:32.350Z,37.24
2019-03-12T18:12:43.205Z,36.98
2019-03-12T18:14:54.008Z,36.59
2019-03-12T18:17:04.836Z,37.41
2019-03-12T18:19:15.679Z,36.80
2019-03-12T18:21:26.484Z,36.55
2019-03-12T18:23:37.319Z,36.40
2019-03-12T18:26:29.768Z,36.38
2019-03-12T18:28:40.615Z,36.67
2019-03-12T18:30:51.436Z,36.68
2019-03-12T18:33:02.390Z,37.00
2019-03-12T18:35:13.309Z,36.47
2019-03-12T18:37:24.127Z,36.64
2019-03-12T18:39:34.962Z,36.65
2019-03-12T18:41:45.768Z,36.42
2019-03-12T18:43:56.621Z,36.80
2019-03-12T18:46:07.650Z,36.98
2019-03-12T18:48:18.494Z,36.50
2019-03-12T18:50:29.336Z,36.81
2019-03-12T18:52:40.292Z,36.57
2019-03-12T18:54:51.127Z,35.74
2019-03-12T18:57:01.939Z,35.48
2019-03-12T18:59:12.784Z,36.50
2019-03-12T19:01:23.650Z,35.89
2019-03-12T19:03:34.489Z,35.57
2019-03-12T19:05:45.323Z,35.32
2019-03-12T19:07:56.255Z,35.31
2019-03-12T19:10:26.969Z,35.85
2019-03-12T19:12:37.922Z,35.84
2019-03-12T19:14:48.767Z,35.23
2019-03-12T19:16:59.574Z,35.35
2019-03-12T19:19:10.543Z,35.70
2019-03-12T19:21:21.357Z,34.65
2019-03-12T19:23:32.186Z,35.18
2019-03-12T19:26:24.752Z,34.90
2019-03-12T19:28:35.754Z,35.25
2019-03-12T19:30:46.841Z,34.99
2019-03-12T19:33:17.528Z,34.66
2019-03-12T19:36:10.088Z,34.56
2019-03-12T19:38:20.904Z,34.90
2019-03-12T19:41:13.425Z,34.66
2019-03-12T19:43:24.246Z,34.68
2019-03-12T19:45:35.153Z,34.92
2019-03-12T19:47:46.073Z,34.63
2019-03-12T19:49:57.109Z,34.40
2019-03-12T19:52:08.021Z,34.29
2019-03-12T19:54:18.839Z,33.82
2019-03-12T19:56:29.698Z,33.94
2019-03-12T19:58:40.512Z,34.26
2019-03-12T20:03:14.786Z,34.00
2019-03-12T20:05:23.094Z,34.15
2019-03-12T20:07:34.037Z,33.66
2019-03-12T20:10:26.485Z,33.77
2019-03-12T20:13:18.979Z,33.63
2019-03-12T20:16:09.771Z,34.17
2019-03-12T20:19:02.266Z,34.20
2019-03-12T20:21:54.766Z,34.59
2019-03-12T20:24:47.232Z,34.50
2019-03-12T20:27:37.823Z,34.29
2019-03-12T20:30:30.308Z,34.72
2019-03-12T20:33:20.829Z,34.38
2019-03-12T20:36:11.373Z,33.49
2019-03-12T20:39:02.290Z,33.99
2019-03-12T20:41:54.864Z,34.62
2019-03-12T20:44:45.402Z,33.81
2019-03-12T20:47:35.991Z,33.95
2019-03-12T20:50:26.526Z,34.06
2019-03-12T20:53:19.038Z,33.75
2019-03-12T20:56:09.675Z,33.56
2019-03-12T20:59:00.355Z,33.22
2019-03-12T21:01:52.805Z,32.82
2019-03-12T21:04:43.376Z,32.54
2019-03-12T21:07:35.826Z,32.83
2019-03-12T21:10:28.291Z,32.13
2019-03-12T21:13:18.874Z,32.01
2019-03-12T21:16:11.326Z,31.91
2019-03-12T21:19:01.895Z,31.77
2019-03-12T21:22:03.185Z,32.01
2019-03-12T21:24:46.805Z,31.68
2019-03-12T21:27:39.274Z,31.97
2019-03-12T21:32:50.625Z,32.70
2019-03-12T21:35:01.759Z,32.29
2019-03-12T21:37:54.232Z,32.15
2019-03-12T21:40:46.705Z,32.46
2019-03-12T21:42:57.536Z,32.69
2019-03-12T21:45:50.009Z,33.11
2019-03-12T21:48:00.940Z,33.48
2019-03-12T21:50:11.773Z,33.82
2019-03-12T21:52:22.691Z,33.58
2019-03-12T21:54:33.650Z,33.55
2019-03-12T21:56:44.464Z,33.59
2019-03-12T21:58:55.404Z,33.25
2019-03-12T22:01:06.292Z,33.30
2019-03-12T22:03:17.095Z,33.18
2019-03-12T22:05:27.943Z,33.75
2019-03-12T22:07:38.733Z,33.95
2019-03-12T22:09:49.596Z,33.86
2019-03-12T22:12:00.409Z,33.57
2019-03-12T22:14:11.248Z,33.37
2019-03-12T22:16:22.101Z,34.09
2019-03-12T22:18:32.948Z,33.91
2019-03-12T22:20:43.773Z,34.28
2019-03-12T22:23:14.476Z,34.44
2019-03-12T22:25:25.267Z,34.57
2019-03-12T22:27:36.099Z,34.35
2019-03-12T22:29:46.890Z,33.71
2019-03-12T22:31:57.726Z,33.54
2019-03-12T22:34:08.514Z,33.50
2019-03-12T22:36:19.335Z,33.44
2019-03-12T22:38:30.172Z,33.30
2019-03-12T22:40:40.995Z,33.89
2019-03-12T22:42:51.808Z,33.67
2019-03-12T22:45:44.258Z,33.21
2019-03-12T22:47:55.068Z,33.95
2019-03-12T22:50:47.599Z,33.71
2019-03-12T22:52:58.477Z,33.46
2019-03-12T22:55:50.909Z,34.03
2019-03-12T22:58:01.735Z,33.79
2019-03-12T23:00:54.171Z,33.87
2019-03-12T23:03:05.108Z,33.87
2019-03-12T23:05:15.912Z,33.92
2019-03-12T23:09:49.235Z,34.22
2019-03-12T23:12:02.539Z,34.11
2019-03-12T23:14:13.400Z,34.47
2019-03-12T23:16:24.215Z,34.32
2019-03-12T23:18:35.082Z,34.39
2019-03-12T23:20:46.044Z,34.72
2019-03-12T23:22:56.888Z,34.94
2019-03-12T23:25:07.720Z,35.15
2019-03-12T23:27:18.536Z,35.32
2019-03-12T23:29:29.351Z,35.49
2019-03-12T23:31:40.153Z,35.37
2019-03-12T23:33:50.965Z,35.61
2019-03-12T23:36:01.871Z,36.07
2019-03-12T23:38:12.681Z,36.73
2019-03-12T23:40:23.496Z,38.51
2019-03-12T23:42:34.298Z,39.39
2019-03-12T23:44:45.112Z,39.74
2019-03-12T23:46:55.915Z,40.85
2019-03-12T23:49:06.744Z,42.28
2019-03-12T23:51:17.566Z,42.87
2019-03-12T23:53:28.353Z,43.83
2019-03-12T23:55:39.178Z,44.21
2019-03-12T23:57:50.107Z,44.67
